Time;durP1;ratioP1;P1;durP2;ratioP2;P2;SDS_P1;SDS_P2;PMS_P1;PMS_P2;Temp;Humidity;BMP_temperature;BMP_pressure;BME280_temperature;BME280_humidity;BME280_pressure;Samples;Min_cycle;Max_cycle;Signal;HPM_P1;HPM_P2
2022/06/26 00:01:21;;;;;;;20.02;12.13;;;19.00;99.90;;;;;;5071745;28;20518;-81
2022/06/26 00:03:47;;;;;;;24.10;12.27;;;19.00;99.90;;;;;;5071002;28;20104;-81
2022/06/26 00:06:13;;;;;;;20.42;11.98;;;19.00;99.90;;;;;;5052050;28;20044;-80
2022/06/26 00:08:39;;;;;;;20.08;11.32;;;19.10;99.90;;;;;;5070639;28;20086;-82
2022/06/26 00:11:04;;;;;;;20.50;11.35;;;19.20;99.90;;;;;;5070758;28;20013;-81
2022/06/26 00:13:30;;;;;;;23.60;10.75;;;19.20;99.90;;;;;;5070237;28;20032;-80
2022/06/26 00:15:57;;;;;;;20.52;11.20;;;19.20;99.90;;;;;;5070649;28;20021;-81
2022/06/26 00:18:23;;;;;;;20.55;11.73;;;19.20;99.90;;;;;;5070542;28;20040;-78
2022/06/26 00:20:51;;;;;;;18.48;11.70;;;19.20;99.90;;;;;;5070425;28;20115;-81
2022/06/26 00:23:17;;;;;;;18.35;11.52;;;19.30;99.90;;;;;;5070233;28;20020;-81
2022/06/26 00:25:43;;;;;;;17.95;9.80;;;19.30;99.90;;;;;;5070418;28;20044;-81
2022/06/26 00:28:09;;;;;;;20.02;11.98;;;19.30;99.90;;;;;;5052093;28;20024;-81
2022/06/26 00:30:34;;;;;;;16.58;10.90;;;19.30;99.90;;;;;;5069612;28;20020;-81
2022/06/26 00:33:00;;;;;;;16.80;11.77;;;19.30;99.90;;;;;;5070347;28;20103;-81
2022/06/26 00:35:26;;;;;;;16.92;11.77;;;19.40;99.90;;;;;;5068716;28;20023;-81
2022/06/26 00:37:52;;;;;;;15.95;10.15;;;19.40;99.90;;;;;;5070060;28;20024;-81
2022/06/26 00:40:18;;;;;;;19.60;11.55;;;19.30;99.90;;;;;;5072188;28;20085;-82
2022/06/26 00:42:44;;;;;;;15.70;10.38;;;19.20;99.90;;;;;;5053522;28;20086;-82
2022/06/26 00:45:10;;;;;;;16.98;10.07;;;19.30;99.90;;;;;;5072179;28;20086;-83
2022/06/26 00:47:36;;;;;;;15.02;10.25;;;19.30;99.90;;;;;;5053861;28;20111;-82
2022/06/26 00:50:05;;;;;;;18.05;11.02;;;19.30;99.90;;;;;;5053212;28;20148;-80
2022/06/26 00:52:32;;;;;;;14.57;9.18;;;19.40;99.90;;;;;;5069075;28;20037;-81
2022/06/26 00:54:58;;;;;;;20.25;11.38;;;19.30;99.90;;;;;;5087321;28;20063;-82
2022/06/26 00:57:24;;;;;;;15.55;10.23;;;19.30;99.90;;;;;;5057933;28;20471;-82
2022/06/26 00:59:50;;;;;;;18.73;11.55;;;19.30;99.90;;;;;;5069632;28;20024;-82
2022/06/26 01:02:16;;;;;;;15.13;10.57;;;19.40;99.90;;;;;;5064634;28;20040;-82
2022/06/26 01:04:42;;;;;;;19.25;10.23;;;19.40;99.90;;;;;;5054703;28;20028;-81
2022/06/26 01:07:09;;;;;;;16.63;9.65;;;19.40;99.90;;;;;;5057717;28;20028;-82
2022/06/26 01:09:35;;;;;;;16.67;10.55;;;19.30;99.90;;;;;;5074641;28;20482;-81
2022/06/26 01:12:01;;;;;;;16.42;10.45;;;19.20;99.90;;;;;;5057482;28;20032;-81
2022/06/26 01:14:30;;;;;;;16.52;10.77;;;19.00;99.90;;;;;;5056896;28;20021;-80
2022/06/26 01:16:56;;;;;;;16.00;10.85;;;19.10;99.90;;;;;;5071206;28;20028;-76
2022/06/26 01:19:22;;;;;;;17.52;10.30;;;19.10;99.90;;;;;;5056746;28;20116;-77
2022/06/26 01:21:47;;;;;;;21.23;12.45;;;19.20;99.90;;;;;;5056469;28;20038;-80
2022/06/26 01:24:14;;;;;;;19.55;12.65;;;19.20;99.90;;;;;;5053525;28;20021;-75
2022/06/26 01:26:41;;;;;;;22.13;11.88;;;19.20;99.90;;;;;;5055097;28;20033;-78
2022/06/26 01:29:08;;;;;;;18.50;12.07;;;19.30;99.90;;;;;;5056736;28;20491;-81
2022/06/26 01:31:34;;;;;;;18.50;11.40;;;19.30;99.90;;;;;;5042752;28;20381;-78
2022/06/26 01:34:08;;;;;;;22.02;12.18;;;19.30;99.90;;;;;;5052617;28;20025;-79
2022/06/26 01:36:35;;;;;;;14.73;10.23;;;19.30;99.90;;;;;;5066935;28;20115;-82
2022/06/26 01:39:03;;;;;;;15.93;9.65;;;19.30;99.90;;;;;;5056739;28;20020;-80
2022/06/26 01:41:32;;;;;;;14.43;7.95;;;19.30;99.90;;;;;;5044650;28;20072;-78
2022/06/26 01:43:58;;;;;;;19.60;11.52;;;19.20;99.90;;;;;;5054119;28;20043;-71
2022/06/26 01:46:25;;;;;;;16.50;9.55;;;19.20;99.90;;;;;;5056146;28;20123;-79
2022/06/26 01:48:51;;;;;;;19.15;10.18;;;19.10;99.90;;;;;;5054136;28;20050;-77
2022/06/26 01:51:17;;;;;;;18.05;10.55;;;19.20;99.90;;;;;;5063302;28;20049;-81
2022/06/26 01:53:45;;;;;;;20.15;12.07;;;19.10;99.90;;;;;;5056483;28;20048;-78
2022/06/26 01:56:12;;;;;;;19.67;11.95;;;19.10;99.90;;;;;;5056500;28;20059;-78
2022/06/26 01:58:48;;;;;;;19.23;12.32;;;19.20;99.90;;;;;;5056545;28;20039;-71
2022/06/26 02:01:33;;;;;;;18.15;12.07;;;19.20;99.90;;;;;;5074453;28;20051;-81
2022/06/26 02:04:00;;;;;;;17.00;10.98;;;19.20;99.90;;;;;;5039483;28;20360;-82
2022/06/26 02:06:26;;;;;;;22.23;12.05;;;19.20;99.90;;;;;;5074233;28;20031;-79
2022/06/26 02:08:54;;;;;;;16.48;10.45;;;19.20;99.90;;;;;;5056777;28;20059;-81
2022/06/26 02:14:04;;;;;;;16.67;11.77;;;19.20;99.90;;;;;;5056059;28;20029;-81
2022/06/26 02:16:42;;;;;;;18.63;10.75;;;19.20;99.90;;;;;;5059864;28;20078;-74
2022/06/26 02:19:10;;;;;;;19.85;13.63;;;19.20;99.90;;;;;;5056184;28;20043;-80
2022/06/26 02:21:38;;;;;;;17.95;11.98;;;19.20;99.90;;;;;;5055759;28;20040;-82
2022/06/26 02:24:05;;;;;;;14.82;11.18;;;19.20;99.90;;;;;;5046849;28;20025;-81
2022/06/26 02:26:30;;;;;;;19.10;11.15;;;19.30;99.90;;;;;;5050307;28;20078;-77
2022/06/26 02:28:57;;;;;;;16.08;10.10;;;19.30;99.90;;;;;;5056293;28;20466;-79
2022/06/26 02:31:23;;;;;;;17.58;9.52;;;19.10;99.90;;;;;;5056253;28;20025;-79
2022/06/26 02:33:50;;;;;;;19.10;11.95;;;19.10;99.90;;;;;;5054833;28;20056;-82
2022/06/26 02:36:15;;;;;;;24.23;12.23;;;19.00;99.90;;;;;;5055195;28;20067;-80
2022/06/26 02:38:42;;;;;;;15.90;10.68;;;19.10;99.90;;;;;;5073909;28;20060;-82
2022/06/26 02:41:08;;;;;;;17.92;11.77;;;19.10;99.90;;;;;;5055444;28;20032;-80
2022/06/26 02:43:36;;;;;;;18.58;12.23;;;19.00;99.90;;;;;;5057722;28;20025;-81
2022/06/26 02:46:04;;;;;;;19.30;12.45;;;19.10;99.90;;;;;;5055453;28;20023;-82
2022/06/26 02:48:30;;;;;;;17.75;12.13;;;19.10;99.90;;;;;;5055928;28;20471;-81
2022/06/26 02:50:56;;;;;;;17.92;13.23;;;18.80;99.90;;;;;;5055262;28;20094;-81
2022/06/26 02:53:22;;;;;;;19.77;12.82;;;18.70;99.90;;;;;;5054751;28;20107;-78
2022/06/26 02:55:50;;;;;;;22.95;12.88;;;18.70;99.90;;;;;;5055331;28;20021;-82
2022/06/26 02:58:16;;;;;;;24.60;14.60;;;18.70;99.90;;;;;;5054171;28;20074;-79
2022/06/26 03:01:02;;;;;;;20.02;12.88;;;18.80;99.90;;;;;;5061705;28;20069;-79
2022/06/26 03:03:28;;;;;;;20.70;12.43;;;18.80;99.90;;;;;;5044059;28;20037;-82
2022/06/26 03:05:54;;;;;;;16.25;11.95;;;18.90;99.90;;;;;;5053368;28;20678;-82
2022/06/26 03:08:24;;;;;;;18.35;12.48;;;18.80;99.90;;;;;;5055284;28;20047;-80
2022/06/26 03:10:50;;;;;;;21.55;12.75;;;18.90;99.90;;;;;;5054311;28;20025;-83
2022/06/26 03:13:16;;;;;;;17.27;11.95;;;19.00;99.90;;;;;;5065335;28;20198;-82
2022/06/26 03:15:44;;;;;;;17.92;10.73;;;19.00;99.90;;;;;;5048897;28;20424;-82
2022/06/26 03:18:11;;;;;;;17.52;11.77;;;19.10;99.90;;;;;;5054393;28;20024;-82
2022/06/26 03:20:39;;;;;;;17.77;12.38;;;19.10;99.90;;;;;;5071334;28;20485;-82
2022/06/26 03:23:09;;;;;;;17.15;11.88;;;19.20;99.90;;;;;;5069789;28;20036;-79
2022/06/26 03:25:35;;;;;;;18.13;12.57;;;19.30;99.90;;;;;;5055556;28;20398;-82
2022/06/26 03:28:01;;;;;;;20.08;11.80;;;19.40;99.90;;;;;;5053610;28;20028;-81
2022/06/26 03:30:27;;;;;;;16.23;11.13;;;19.40;99.90;;;;;;5054199;28;20044;-80
2022/06/26 03:32:53;;;;;;;16.92;12.18;;;19.50;99.90;;;;;;5053895;28;20046;-82
2022/06/26 03:35:19;;;;;;;21.48;12.95;;;19.40;99.90;;;;;;5040411;28;20471;-82
2022/06/26 03:37:46;;;;;;;19.60;12.07;;;19.50;99.90;;;;;;5044986;28;20475;-78
2022/06/26 03:40:12;;;;;;;23.73;14.02;;;19.40;99.90;;;;;;5048902;28;20040;-81
2022/06/26 03:42:39;;;;;;;19.75;14.07;;;19.50;99.90;;;;;;5054013;28;20115;-79
2022/06/26 03:45:06;;;;;;;22.05;11.98;;;19.80;99.90;;;;;;5054390;28;20021;-82
2022/06/26 03:47:33;;;;;;;18.67;11.85;;;20.70;99.90;;;;;;5053698;28;20360;-79
2022/06/26 03:49:59;;;;;;;20.67;11.52;;;21.60;99.90;;;;;;5054589;28;20109;-84
2022/06/26 03:52:25;;;;;;;15.10;10.02;;;22.60;99.90;;;;;;5052857;28;20502;-81
2022/06/26 03:54:54;;;;;;;22.05;10.65;;;22.90;99.90;;;;;;5060783;28;20017;-83
2022/06/26 03:57:23;;;;;;;16.58;9.20;;;23.10;99.90;;;;;;5037567;28;20060;-77
2022/06/26 03:59:50;;;;;;;19.67;9.13;;;24.00;99.90;;;;;;5054379;28;20489;-83
2022/06/26 04:02:24;;;;;;;19.60;9.52;;;24.90;99.90;;;;;;5053273;28;20505;-80
2022/06/26 04:04:50;;;;;;;24.50;8.68;;;25.10;99.90;;;;;;5054167;28;20021;-83
2022/06/26 04:07:16;;;;;;;16.30;8.77;;;25.50;99.90;;;;;;5071138;28;20025;-73
2022/06/26 04:09:45;;;;;;;20.27;9.02;;;25.80;99.90;;;;;;5053589;28;20028;-81
2022/06/26 04:12:17;;;;;;;16.92;8.35;;;26.30;99.90;;;;;;5046973;28;20066;-76
2022/06/26 04:14:43;;;;;;;9.73;6.78;;;26.40;99.90;;;;;;5049246;28;20056;-82
2022/06/26 04:17:11;;;;;;;15.30;8.15;;;26.70;99.90;;;;;;5053464;28;20032;-83
2022/06/26 04:19:42;;;;;;;14.35;7.72;;;27.60;99.90;;;;;;5053202;28;20029;-81
2022/06/26 04:22:08;;;;;;;17.23;7.55;;;28.50;99.90;;;;;;5053152;28;20041;-83
2022/06/26 04:24:34;;;;;;;17.90;8.98;;;28.70;99.90;;;;;;5052973;28;20040;-78
2022/06/26 04:27:01;;;;;;;11.80;7.40;;;29.70;99.90;;;;;;5054503;28;20024;-81
2022/06/26 04:29:27;;;;;;;15.80;7.15;;;29.80;99.90;;;;;;5071555;28;20467;-83
2022/06/26 04:31:53;;;;;;;12.50;7.30;;;30.20;99.90;;;;;;5053535;28;20029;-83
2022/06/26 04:34:20;;;;;;;17.38;7.47;;;30.80;99.90;;;;;;5045183;28;20424;-85
2022/06/26 04:36:46;;;;;;;15.93;7.70;;;31.20;99.90;;;;;;5069104;28;20064;-82
2022/06/26 04:39:18;;;;;;;11.40;7.30;;;31.60;99.90;;;;;;5057858;28;20378;-84
2022/06/26 04:41:44;;;;;;;12.32;6.65;;;31.70;99.90;;;;;;5075118;28;20120;-77
2022/06/26 04:44:12;;;;;;;13.65;7.90;;;31.90;99.90;;;;;;5075748;28;20052;-84
2022/06/26 04:46:41;;;;;;;13.57;7.68;;;32.10;99.90;;;;;;5057355;28;20040;-85
2022/06/26 04:49:07;;;;;;;11.88;7.00;;;31.90;99.90;;;;;;5074495;28;20016;-84
2022/06/26 04:51:37;;;;;;;12.77;7.03;;;31.90;99.90;;;;;;5076040;28;20064;-80
2022/06/26 04:54:09;;;;;;;16.20;7.20;;;32.20;99.90;;;;;;5055394;28;20070;-84
2022/06/26 04:56:36;;;;;;;10.75;5.80;;;32.20;99.90;;;;;;5058370;28;20051;-82
2022/06/26 04:59:03;;;;;;;9.52;6.18;;;32.10;99.90;;;;;;5059253;28;20033;-84
2022/06/26 05:01:30;;;;;;;13.50;6.57;;;30.50;99.90;;;;;;5078350;28;20041;-84
2022/06/26 05:04:21;;;;;;;16.23;7.72;;;29.90;99.90;;;;;;5057751;28;20040;-71
2022/06/26 05:07:11;;;;;;;12.77;8.05;;;29.20;99.90;;;;;;5059042;28;20060;-75
2022/06/26 05:09:37;;;;;;;11.50;7.22;;;28.70;99.90;;;;;;5062270;28;20024;-78
2022/06/26 05:12:04;;;;;;;14.02;6.70;;;28.20;99.90;;;;;;5059022;28;20033;-84
2022/06/26 05:14:53;;;;;;;16.38;6.70;;;27.90;99.90;;;;;;5013878;28;20041;-82
2022/06/26 05:17:28;;;;;;;13.25;6.82;;;27.80;99.90;;;;;;5011879;28;20049;-82
2022/06/26 05:19:54;;;;;;;11.98;6.93;;;27.70;99.90;;;;;;5013193;28;20037;-82
2022/06/26 05:22:23;;;;;;;11.73;7.32;;;27.60;99.90;;;;;;4994025;28;20038;-83
2022/06/26 05:24:49;;;;;;;11.18;6.80;;;24.80;99.90;;;;;;5003571;28;20481;-78
2022/06/26 05:27:15;;;;;;;12.02;6.13;;;27.20;99.90;;;;;;5009125;28;20042;-77
2022/06/26 05:29:41;;;;;;;9.45;5.47;;;27.00;99.90;;;;;;4988833;28;20427;-81
2022/06/26 05:32:07;;;;;;;10.95;5.50;;;27.10;99.90;;;;;;5010473;28;20121;-75
2022/06/26 05:34:34;;;;;;;18.60;6.53;;;27.10;99.90;;;;;;5012068;28;20512;-81
2022/06/26 05:37:00;;;;;;;10.80;5.82;;;27.00;99.90;;;;;;4984428;28;20492;-81
2022/06/26 05:39:26;;;;;;;11.63;5.68;;;26.50;99.90;;;;;;5010536;28;20034;-82
2022/06/26 05:41:52;;;;;;;15.75;5.47;;;26.20;99.90;;;;;;5012325;28;20034;-82
2022/06/26 05:44:19;;;;;;;8.55;5.38;;;26.20;99.90;;;;;;4994816;28;20030;-82
2022/06/26 05:46:49;;;;;;;8.35;4.45;;;26.50;99.90;;;;;;5009636;28;20029;-79
2022/06/26 05:49:37;;;;;;;12.48;5.68;;;26.70;99.90;;;;;;5001353;28;20148;-77
2022/06/26 05:52:26;;;;;;;10.43;6.18;;;26.80;99.90;;;;;;5005715;28;20522;-76
2022/06/26 05:55:12;;;;;;;15.80;6.40;;;26.50;99.90;;;;;;5016577;28;20184;-74
2022/06/26 05:58:12;;;;;;;12.45;6.28;;;26.50;99.90;;;;;;4990289;28;20104;-76
2022/06/26 06:01:04;;;;;;;11.18;6.03;;;26.20;99.90;;;;;;4968484;28;20026;-77
2022/06/26 06:03:30;;;;;;;15.18;5.78;;;26.30;99.90;;;;;;4991044;28;20050;-78
2022/06/26 06:05:58;;;;;;;11.40;6.05;;;25.90;99.90;;;;;;4975168;28;20718;-76
2022/06/26 06:08:24;;;;;;;13.23;6.78;;;26.00;99.90;;;;;;4975062;28;20089;-77
2022/06/26 06:10:50;;;;;;;13.02;5.28;;;26.10;99.90;;;;;;4975286;28;20031;-78
2022/06/26 06:13:16;;;;;;;12.30;6.28;;;26.30;99.90;;;;;;4990923;28;20476;-78
2022/06/26 06:15:42;;;;;;;13.43;6.13;;;26.50;99.90;;;;;;4975850;28;20522;-78
2022/06/26 06:18:10;;;;;;;13.20;5.75;;;26.70;99.90;;;;;;4991954;28;20188;-78
2022/06/26 06:20:37;;;;;;;14.75;7.43;;;26.70;99.90;;;;;;4975038;28;20042;-79
2022/06/26 06:23:05;;;;;;;12.93;6.38;;;26.70;99.90;;;;;;4975165;28;20050;-75
2022/06/26 06:25:32;;;;;;;9.93;6.10;;;26.60;99.90;;;;;;4991288;28;20038;-73
2022/06/26 06:28:03;;;;;;;9.88;6.15;;;26.60;99.90;;;;;;4991282;28;20038;-75
2022/06/26 06:30:33;;;;;;;12.95;6.05;;;26.80;99.90;;;;;;5009390;28;20087;-78
2022/06/26 06:33:02;;;;;;;11.75;6.22;;;27.00;99.90;;;;;;5021727;28;20051;-77
2022/06/26 06:35:37;;;;;;;10.57;5.75;;;26.60;99.90;;;;;;5055124;28;20027;-79
2022/06/26 06:38:05;;;;;;;20.13;6.50;;;27.00;99.90;;;;;;5054551;28;20074;-75
2022/06/26 06:40:32;;;;;;;9.52;6.03;;;26.90;99.90;;;;;;5053323;28;20032;-77
2022/06/26 06:43:01;;;;;;;11.80;6.68;;;27.00;99.90;;;;;;5071125;28;20119;-78
2022/06/26 06:45:36;;;;;;;10.13;6.78;;;26.90;99.90;;;;;;5070049;28;20024;-74
2022/06/26 06:48:02;;;;;;;17.10;7.53;;;26.80;99.90;;;;;;5072268;28;20111;-76
2022/06/26 06:50:38;;;;;;;14.93;6.03;;;27.00;99.90;;;;;;5086335;28;20045;-79
2022/06/26 06:53:05;;;;;;;12.48;6.40;;;27.40;99.90;;;;;;5053254;28;20833;-79
2022/06/26 06:55:31;;;;;;;13.30;6.30;;;27.60;99.90;;;;;;5053982;28;20035;-77
2022/06/26 06:57:58;;;;;;;10.77;6.70;;;27.60;99.90;;;;;;5053121;28;20028;-78
2022/06/26 07:00:24;;;;;;;16.10;6.72;;;27.90;99.90;;;;;;5054491;28;20068;-77
2022/06/26 07:02:51;;;;;;;11.43;6.65;;;27.60;99.90;;;;;;5041891;28;20060;-78
2022/06/26 07:05:19;;;;;;;10.48;5.82;;;28.00;99.90;;;;;;5052029;28;20028;-78
2022/06/26 07:07:47;;;;;;;12.75;6.90;;;28.30;99.90;;;;;;5053114;28;20066;-73
2022/06/26 07:10:13;;;;;;;11.75;6.25;;;28.00;99.90;;;;;;5064588;28;20097;-78
2022/06/26 07:12:39;;;;;;;13.02;6.80;;;28.40;99.90;;;;;;5061321;28;20050;-77
2022/06/26 07:15:06;;;;;;;12.25;7.15;;;28.30;99.90;;;;;;5068784;28;20470;-71
2022/06/26 07:17:32;;;;;;;12.85;6.20;;;28.20;99.90;;;;;;5068709;28;20048;-73
2022/06/26 07:19:58;;;;;;;12.20;6.50;;;28.50;99.90;;;;;;5052059;28;20175;-70
2022/06/26 07:22:25;;;;;;;8.35;6.03;;;28.80;99.90;;;;;;5051746;28;20043;-76
2022/06/26 07:25:00;;;;;;;14.75;6.15;;;28.70;99.90;;;;;;5051581;28;20021;-77
2022/06/26 07:27:40;;;;;;;12.32;6.40;;;28.70;99.90;;;;;;5067641;28;20103;-74
2022/06/26 07:30:07;;;;;;;9.48;5.60;;;28.80;99.90;;;;;;5052383;28;20494;-73
2022/06/26 07:32:39;;;;;;;8.25;5.60;;;29.00;99.90;;;;;;5052412;28;20474;-78
2022/06/26 07:35:07;;;;;;;10.30;5.88;;;29.30;99.90;;;;;;5052284;28;20383;-79
2022/06/26 07:37:33;;;;;;;10.30;6.22;;;29.40;99.90;;;;;;5068608;28;20020;-77
2022/06/26 07:40:00;;;;;;;36.47;6.65;;;29.20;99.90;;;;;;5052213;28;20036;-76
2022/06/26 07:42:27;;;;;;;9.32;5.30;;;28.70;99.90;;;;;;5051782;28;20185;-78
2022/06/26 07:44:53;;;;;;;11.93;4.32;;;28.70;99.90;;;;;;5052427;28;20515;-75
2022/06/26 07:47:24;;;;;;;14.47;5.23;;;28.90;99.90;;;;;;5052383;28;20112;-67
2022/06/26 07:50:00;;;;;;;15.55;5.35;;;29.10;99.90;;;;;;5052824;28;20339;-70
2022/06/26 07:52:26;;;;;;;8.93;5.35;;;29.40;99.90;;;;;;5071475;28;20070;-78
2022/06/26 07:54:52;;;;;;;11.70;5.28;;;29.50;99.90;;;;;;5070778;28;20111;-73
2022/06/26 07:57:18;;;;;;;9.77;5.40;;;29.60;99.90;;;;;;5072416;28;20116;-69
2022/06/26 07:59:44;;;;;;;8.95;5.13;;;29.30;99.90;;;;;;5085890;28;20312;-78
2022/06/26 08:02:10;;;;;;;9.27;5.90;;;29.40;99.90;;;;;;5073966;28;20567;-78
2022/06/26 08:04:36;;;;;;;10.55;5.57;;;29.60;99.90;;;;;;5070986;28;20108;-79
2022/06/26 08:07:02;;;;;;;16.02;6.10;;;29.60;99.50;;;;;;5071131;28;20036;-76
2022/06/26 08:09:28;;;;;;;13.35;6.07;;;29.40;99.90;;;;;;5072282;28;20454;-76
2022/06/26 08:11:54;;;;;;;12.60;5.55;;;29.50;99.50;;;;;;5074473;28;20031;-78
2022/06/26 08:14:20;;;;;;;13.13;6.47;;;29.20;99.90;;;;;;5075018;28;20021;-78
2022/06/26 08:16:46;;;;;;;8.10;5.38;;;29.40;99.90;;;;;;5075052;28;20040;-78
2022/06/26 08:19:12;;;;;;;8.32;5.00;;;29.40;99.20;;;;;;5066672;28;20035;-76
2022/06/26 08:24:22;;;;;;;12.55;5.25;;;29.40;99.90;;;;;;5075133;28;20032;-78
2022/06/26 08:26:48;;;;;;;12.57;4.55;;;29.50;97.80;;;;;;5074991;28;20031;-78
2022/06/26 08:29:14;;;;;;;13.63;4.60;;;29.70;97.80;;;;;;5075121;28;20032;-77
2022/06/26 08:31:40;;;;;;;12.90;4.50;;;29.90;97.60;;;;;;5074480;28;20029;-74
2022/06/26 08:34:06;;;;;;;9.68;5.30;;;29.80;97.50;;;;;;5081607;28;20024;-78
2022/06/26 08:36:32;;;;;;;11.40;6.90;;;30.00;97.40;;;;;;5081952;28;20082;-73
2022/06/26 08:38:58;;;;;;;6.60;3.95;;;30.10;99.50;;;;;;5074252;28;20021;-74
2022/06/26 08:41:28;;;;;;;6.10;4.15;;;30.10;99.90;;;;;;5074286;28;20382;-78
2022/06/26 08:43:58;;;;;;;10.23;5.55;;;29.80;99.30;;;;;;5074724;28;20115;-78
2022/06/26 08:46:27;;;;;;;11.88;4.20;;;30.20;98.40;;;;;;5074768;28;20028;-78
2022/06/26 08:48:55;;;;;;;16.88;10.63;;;30.20;97.20;;;;;;5074958;28;20031;-78
2022/06/26 08:51:21;;;;;;;9.63;4.18;;;30.20;98.00;;;;;;5074213;28;20052;-77
2022/06/26 08:53:48;;;;;;;5.78;3.58;;;30.00;99.90;;;;;;5074369;28;20050;-78
2022/06/26 08:56:14;;;;;;;7.63;3.65;;;30.10;99.80;;;;;;5074604;28;20025;-78
2022/06/26 08:58:40;;;;;;;8.70;5.15;;;30.20;99.00;;;;;;5075059;28;20028;-74
2022/06/26 09:01:07;;;;;;;5.85;3.30;;;30.30;99.60;;;;;;5056494;28;20028;-79
2022/06/26 09:03:34;;;;;;;6.22;3.15;;;30.50;98.30;;;;;;5071807;28;20059;-78
2022/06/26 09:06:02;;;;;;;4.35;2.53;;;30.70;99.90;;;;;;5063535;28;20085;-75
2022/06/26 09:08:30;;;;;;;8.93;3.50;;;30.60;97.70;;;;;;5074216;28;20031;-78
2022/06/26 09:10:58;;;;;;;5.13;2.83;;;30.60;96.80;;;;;;5074021;28;20654;-77
2022/06/26 09:13:40;;;;;;;6.72;3.60;;;30.60;98.30;;;;;;5074174;28;20024;-78
2022/06/26 09:16:06;;;;;;;7.63;2.83;;;30.50;99.50;;;;;;5074508;28;20607;-78
2022/06/26 09:18:37;;;;;;;5.97;2.53;;;30.60;99.90;;;;;;5073555;28;20032;-67
2022/06/26 09:21:04;;;;;;;7.03;3.80;;;30.80;99.90;;;;;;5073298;28;20398;-78
2022/06/26 09:23:34;;;;;;;4.95;3.22;;;30.80;99.90;;;;;;5074262;28;20589;-79
2022/06/26 09:26:01;;;;;;;5.70;2.55;;;31.10;96.90;;;;;;5074319;28;20032;-77
2022/06/26 09:28:27;;;;;;;5.00;2.38;;;30.40;96.70;;;;;;5073991;28;20059;-79
2022/06/26 09:30:57;;;;;;;7.13;3.03;;;30.30;98.60;;;;;;5074193;28;20020;-77
2022/06/26 09:33:27;;;;;;;6.35;3.42;;;30.20;98.40;;;;;;5074244;28;20398;-79
2022/06/26 09:35:55;;;;;;;8.65;2.83;;;29.80;97.30;;;;;;5074281;28;20032;-78
2022/06/26 09:38:26;;;;;;;3.78;2.33;;;29.80;96.60;;;;;;5073959;28;20023;-79
2022/06/26 09:41:00;;;;;;;6.85;3.65;;;29.80;98.80;;;;;;5074075;28;20436;-79
2022/06/26 09:43:29;;;;;;;4.32;2.95;;;30.00;99.90;;;;;;5073731;28;20153;-80
2022/06/26 09:45:56;;;;;;;4.07;2.17;;;30.30;99.00;;;;;;5074335;28;20051;-79
2022/06/26 09:48:25;;;;;;;4.85;2.40;;;30.20;95.10;;;;;;5073881;28;20057;-78
2022/06/26 09:50:53;;;;;;;5.90;2.55;;;30.20;95.40;;;;;;5063773;28;20049;-79
2022/06/26 09:53:20;;;;;;;6.43;2.20;;;30.40;97.90;;;;;;5069836;28;20119;-79
2022/06/26 09:55:48;;;;;;;6.20;2.25;;;30.30;97.50;;;;;;5073634;28;20054;-80
2022/06/26 09:58:15;;;;;;;2.58;1.70;;;30.50;95.40;;;;;;5073664;28;20029;-79
2022/06/26 10:00:41;;;;;;;2.85;1.80;;;30.20;93.60;;;;;;5073512;28;20044;-77
2022/06/26 10:06:25;;;;;;;4.90;1.88;;;30.30;95.20;;;;;;4991410;28;20042;-79
2022/06/26 10:08:59;;;;;;;7.47;2.75;;;29.90;97.70;;;;;;4972645;28;20035;-79
2022/06/26 10:11:27;;;;;;;6.82;2.63;;;29.90;99.00;;;;;;4972390;28;20202;-80
2022/06/26 10:14:21;;;;;;;3.45;2.30;;;30.30;98.80;;;;;;4971781;28;20437;-76
2022/06/26 10:17:28;;;;;;;2.22;1.77;;;30.30;95.00;;;;;;4971539;28;20031;-77
2022/06/26 10:20:04;;;;;;;6.20;1.92;;;30.40;97.10;;;;;;4930051;29;20466;-78
2022/06/26 10:22:41;;;;;;;3.20;1.85;;;30.30;94.60;;;;;;4933288;29;20458;-74
2022/06/26 10:25:19;;;;;;;2.60;1.60;;;30.20;93.70;;;;;;4932796;29;20059;-79
2022/06/26 10:27:45;;;;;;;4.75;1.98;;;30.00;92.80;;;;;;4932462;29;20028;-77
2022/06/26 10:30:13;;;;;;;3.08;1.70;;;29.90;95.50;;;;;;4932536;29;20765;-78
2022/06/26 10:32:40;;;;;;;3.08;1.70;;;30.20;95.30;;;;;;4932505;29;20515;-78
2022/06/26 10:35:07;;;;;;;4.40;1.52;;;30.40;94.70;;;;;;4932277;29;20023;-78
2022/06/26 10:37:43;;;;;;;7.78;2.10;;;30.60;95.60;;;;;;4942316;29;20027;-75
2022/06/26 10:43:15;;;;;;;7.15;2.05;;;30.00;94.30;;;;;;5010249;28;20081;-75
2022/06/26 10:45:41;;;;;;;2.22;1.73;;;29.90;95.10;;;;;;5019473;28;20028;-74
2022/06/26 10:48:28;;;;;;;3.80;1.70;;;30.00;95.60;;;;;;5046502;28;20060;-76
2022/06/26 10:51:01;;;;;;;3.63;1.52;;;30.10;95.50;;;;;;5017701;28;20596;-77
2022/06/26 10:53:30;;;;;;;3.60;1.42;;;30.20;94.70;;;;;;5029031;28;20069;-77
2022/06/26 10:56:02;;;;;;;2.53;1.55;;;30.50;95.70;;;;;;5058103;28;20501;-76
2022/06/26 10:58:45;;;;;;;2.63;1.92;;;30.20;94.10;;;;;;5071536;28;20032;-72
2022/06/26 11:01:12;;;;;;;2.10;1.67;;;29.80;95.60;;;;;;5071458;28;20020;-77
2022/06/26 11:03:39;;;;;;;4.50;1.45;;;29.70;95.40;;;;;;5071592;28;20024;-75
2022/06/26 11:06:14;;;;;;;2.45;1.30;;;29.80;96.50;;;;;;5071535;28;20023;-76
2022/06/26 11:08:47;;;;;;;2.67;1.25;;;29.90;94.30;;;;;;5071060;28;20518;-74
2022/06/26 11:11:20;;;;;;;2.80;1.08;;;30.00;95.40;;;;;;5071018;28;20375;-75
2022/06/26 11:13:58;;;;;;;1.98;1.05;;;30.10;93.90;;;;;;5070671;28;20459;-75
2022/06/26 11:16:45;;;;;;;4.68;1.20;;;30.20;94.30;;;;;;5071735;28;20509;-77
2022/06/26 11:19:23;;;;;;;1.10;0.90;;;30.40;96.00;;;;;;5070818;28;20032;-77
2022/06/26 11:21:49;;;;;;;3.97;1.55;;;30.20;94.20;;;;;;5071534;28;20406;-76
2022/06/26 11:24:15;;;;;;;2.85;1.60;;;30.30;93.00;;;;;;5071634;28;20028;-78
2022/06/26 11:26:42;;;;;;;1.45;1.20;;;30.20;92.00;;;;;;5071739;28;20029;-77
2022/06/26 11:29:11;;;;;;;1.17;1.08;;;30.20;93.00;;;;;;5071404;28;20104;-73
2022/06/26 11:31:37;;;;;;;1.83;0.98;;;30.30;92.00;;;;;;5072045;28;20386;-77
2022/06/26 11:34:12;;;;;;;3.00;1.23;;;30.30;93.10;;;;;;5071744;28;20020;-77
2022/06/26 11:36:50;;;;;;;3.60;1.17;;;30.40;91.50;;;;;;5065004;28;20475;-77
2022/06/26 11:39:17;;;;;;;2.78;1.17;;;30.30;93.70;;;;;;5057357;28;20054;-74
2022/06/26 11:41:44;;;;;;;2.17;1.20;;;30.30;94.50;;;;;;5073170;28;20083;-73
2022/06/26 11:44:10;;;;;;;1.80;1.30;;;30.40;93.10;;;;;;5081042;28;20016;-76
2022/06/26 11:46:36;;;;;;;3.28;1.70;;;30.30;93.90;;;;;;5070794;28;20040;-76
2022/06/26 11:49:02;;;;;;;2.47;1.40;;;30.50;94.20;;;;;;5070419;28;20013;-77
2022/06/26 11:51:31;;;;;;;5.00;1.15;;;30.50;93.30;;;;;;5070160;28;20044;-76
2022/06/26 11:53:58;;;;;;;1.27;1.08;;;30.50;95.20;;;;;;5070974;28;20031;-72
2022/06/26 11:56:28;;;;;;;2.60;1.40;;;30.30;93.70;;;;;;5071637;28;20025;-77
2022/06/26 11:58:56;;;;;;;2.15;1.17;;;30.30;93.50;;;;;;5071834;28;20021;-76
2022/06/26 12:01:29;;;;;;;3.22;1.65;;;30.40;93.20;;;;;;5071239;28;20032;-73
2022/06/26 12:03:56;;;;;;;1.00;0.93;;;30.50;92.90;;;;;;5070987;28;20035;-74
2022/06/26 12:06:32;;;;;;;1.17;1.08;;;30.40;94.20;;;;;;5070951;28;20085;-76
2022/06/26 12:09:00;;;;;;;3.30;1.25;;;30.60;94.90;;;;;;5071087;28;20039;-80
2022/06/26 12:11:26;;;;;;;6.55;1.52;;;30.60;94.60;;;;;;5071168;28;20028;-79
2022/06/26 12:13:52;;;;;;;2.33;1.50;;;30.60;94.10;;;;;;5071898;28;20198;-79
2022/06/26 12:16:18;;;;;;;1.30;1.20;;;30.50;94.20;;;;;;5071126;28;20119;-66
2022/06/26 12:18:47;;;;;;;2.10;1.30;;;30.50;94.20;;;;;;5070250;28;20115;-71
2022/06/26 12:21:19;;;;;;;1.75;1.33;;;30.50;95.00;;;;;;5071171;28;20032;-76
2022/06/26 12:23:46;;;;;;;1.98;1.10;;;30.60;95.50;;;;;;5071263;28;20082;-76
2022/06/26 12:26:16;;;;;;;1.48;1.17;;;30.40;92.60;;;;;;5071498;28;20032;-69
2022/06/26 12:28:58;;;;;;;2.08;1.20;;;30.30;94.00;;;;;;5071486;28;20048;-77
2022/06/26 12:31:24;;;;;;;2.38;1.00;;;30.30;93.80;;;;;;5071066;28;20021;-79
2022/06/26 12:33:50;;;;;;;1.92;1.30;;;30.40;92.40;;;;;;5070908;28;20466;-79
2022/06/26 12:36:17;;;;;;;0.93;0.85;;;30.50;94.20;;;;;;5070703;28;20028;-77
2022/06/26 12:38:44;;;;;;;2.97;1.30;;;30.60;94.30;;;;;;5071223;28;20046;-65
2022/06/26 12:41:16;;;;;;;2.10;1.08;;;30.60;93.10;;;;;;5059147;28;20060;-77
2022/06/26 12:43:47;;;;;;;5.32;1.02;;;30.70;93.30;;;;;;5069770;28;20024;-77
2022/06/26 12:46:14;;;;;;;0.90;0.90;;;30.60;92.10;;;;;;5070721;28;20102;-74
2022/06/26 12:48:40;;;;;;;0.98;0.80;;;30.40;93.80;;;;;;5071101;28;20029;-77
2022/06/26 12:51:06;;;;;;;1.02;1.02;;;30.10;92.60;;;;;;5070971;28;20094;-79
2022/06/26 12:53:32;;;;;;;2.63;0.98;;;30.10;91.90;;;;;;5071069;28;20036;-79
2022/06/26 12:55:59;;;;;;;0.85;0.57;;;30.30;94.80;;;;;;5071445;28;20390;-75
2022/06/26 12:58:25;;;;;;;1.52;1.13;;;30.40;91.80;;;;;;5074513;28;20066;-77